createdAt,value
2023-03-04T00:01:51.891Z,38.22
2023-03-04T00:04:18.339Z,40.35
2023-03-04T00:06:44.723Z,39.17
2023-03-04T00:09:11.176Z,39.13
2023-03-04T00:11:37.574Z,41.97
2023-03-04T00:14:04.006Z,42.47
2023-03-04T00:16:30.475Z,48.22
2023-03-04T00:18:57.226Z,45.65
2023-03-04T00:21:23.992Z,45.22
2023-03-04T00:23:50.613Z,42.63
2023-03-04T00:26:16.992Z,39.85
2023-03-04T00:28:43.804Z,38.47
2023-03-04T00:31:10.963Z,37.05
2023-03-04T00:33:37.527Z,37.53
2023-03-04T00:36:04.604Z,37.58
2023-03-04T00:38:31.043Z,36.90
2023-03-04T00:40:57.748Z,38.92
2023-03-04T00:43:24.365Z,37.20
2023-03-04T00:45:50.875Z,37.95
2023-03-04T00:48:17.506Z,35.88
2023-03-04T00:50:44.258Z,37.65
2023-03-04T00:53:10.767Z,35.65
2023-03-04T00:55:37.232Z,35.92
2023-03-04T00:58:03.632Z,36.15
2023-03-04T01:00:30.136Z,37.00
2023-03-04T01:02:56.645Z,36.38
2023-03-04T01:05:23.088Z,38.05
2023-03-04T01:07:49.569Z,37.45
2023-03-04T01:10:16.195Z,35.97
2023-03-04T01:12:43.024Z,35.33
2023-03-04T01:15:10.793Z,35.25
2023-03-04T01:17:37.245Z,37.42
2023-03-04T01:20:04.834Z,36.83
2023-03-04T01:22:31.314Z,36.33
2023-03-04T01:24:57.775Z,38.10
2023-03-04T01:27:24.176Z,36.42
2023-03-04T01:29:50.626Z,36.88
2023-03-04T01:32:17.090Z,37.20
2023-03-04T01:34:45.783Z,38.08
2023-03-04T01:37:13.779Z,37.28
2023-03-04T01:39:40.264Z,37.83
2023-03-04T01:42:09.716Z,38.90
2023-03-04T01:44:36.232Z,37.65
2023-03-04T01:47:02.680Z,36.45
2023-03-04T01:49:29.160Z,37.88
2023-03-04T01:51:55.649Z,37.80
2023-03-04T01:54:22.802Z,38.55
2023-03-04T01:56:50.694Z,38.08
2023-03-04T01:59:24.473Z,37.38
2023-03-04T02:01:52.724Z,37.33
2023-03-04T02:04:20.571Z,36.50
2023-03-04T02:06:47.909Z,36.70
2023-03-04T02:09:15.360Z,37.10
2023-03-04T02:11:42.395Z,39.58
2023-03-04T02:14:11.734Z,36.58
2023-03-04T02:16:38.614Z,37.40
2023-03-04T02:19:06.921Z,39.25
2023-03-04T02:21:34.009Z,37.88
2023-03-04T02:24:00.444Z,37.42
2023-03-04T02:26:27.761Z,38.22
2023-03-04T02:28:55.257Z,40.70
2023-03-04T02:31:21.706Z,38.15
2023-03-04T02:33:48.167Z,36.35
2023-03-04T02:36:14.643Z,38.50
2023-03-04T02:38:41.252Z,37.65
2023-03-04T02:41:09.876Z,40.88
2023-03-04T02:43:38.649Z,40.13
2023-03-04T02:46:05.977Z,38.78
2023-03-04T02:48:32.451Z,38.35
2023-03-04T02:50:58.914Z,36.78
2023-03-04T02:53:25.639Z,38.65
2023-03-04T02:55:52.072Z,36.95
2023-03-04T02:58:18.519Z,37.92
2023-03-04T03:00:47.386Z,38.67
2023-03-04T03:03:13.937Z,37.50
2023-03-04T03:05:40.792Z,37.28
2023-03-04T03:08:07.539Z,38.97
2023-03-04T03:10:36.610Z,39.03
2023-03-04T03:13:08.461Z,38.95
2023-03-04T03:15:35.522Z,38.40
2023-03-04T03:18:01.992Z,37.80
2023-03-04T03:20:28.437Z,36.90
2023-03-04T03:22:54.826Z,36.72
2023-03-04T03:25:21.318Z,37.30
2023-03-04T03:27:47.803Z,36.42
2023-03-04T03:30:15.062Z,36.55
2023-03-04T03:32:41.481Z,34.90
2023-03-04T03:35:08.144Z,36.72
2023-03-04T03:37:34.731Z,34.78
2023-03-04T03:40:01.172Z,37.05
2023-03-04T03:42:27.702Z,34.85
2023-03-04T03:44:54.126Z,36.92
2023-03-04T03:47:20.657Z,37.45
2023-03-04T03:49:47.125Z,37.97
2023-03-04T03:52:14.021Z,38.08
2023-03-04T03:54:40.494Z,36.00
2023-03-04T03:57:06.940Z,36.42
2023-03-04T03:59:33.392Z,37.15
2023-03-04T04:01:59.962Z,36.72
2023-03-04T04:04:26.731Z,36.17
2023-03-04T04:06:53.207Z,38.00
2023-03-04T04:09:19.876Z,37.95
2023-03-04T04:11:48.624Z,37.83
2023-03-04T04:14:15.181Z,37.60
2023-03-04T04:16:44.383Z,37.42
2023-03-04T04:19:20.342Z,38.30
2023-03-04T04:21:47.388Z,36.78
2023-03-04T04:24:13.913Z,38.10
2023-03-04T04:26:40.534Z,37.03
2023-03-04T04:29:06.956Z,36.28
2023-03-04T04:31:33.470Z,35.47
2023-03-04T04:33:59.972Z,36.83
2023-03-04T04:36:26.986Z,36.50
2023-03-04T04:38:53.462Z,36.00
2023-03-04T04:41:21.638Z,35.40
2023-03-04T04:43:50.985Z,36.17
2023-03-04T04:46:20.344Z,36.33
2023-03-04T04:48:47.148Z,35.58
2023-03-04T04:51:13.616Z,35.15
2023-03-04T04:53:40.190Z,35.63
2023-03-04T04:56:10.676Z,36.13
2023-03-04T04:58:37.496Z,35.45
2023-03-04T05:01:04.893Z,35.65
2023-03-04T05:03:31.950Z,34.78
2023-03-04T05:06:00.911Z,35.53
2023-03-04T05:08:27.416Z,34.22
2023-03-04T05:10:54.023Z,33.28
2023-03-04T05:13:20.492Z,34.28
2023-03-04T05:15:47.250Z,35.53
2023-03-04T05:18:13.956Z,34.53
2023-03-04T05:20:40.420Z,34.80
2023-03-04T05:23:07.245Z,33.35
2023-03-04T05:25:33.684Z,32.00
2023-03-04T05:28:02.061Z,34.17
2023-03-04T05:30:28.513Z,33.75
2023-03-04T05:32:54.961Z,34.58
2023-03-04T05:35:21.542Z,34.20
2023-03-04T05:37:47.992Z,36.65
2023-03-04T05:40:14.513Z,33.92
2023-03-04T05:42:40.963Z,34.75
2023-03-04T05:45:07.836Z,34.65
2023-03-04T05:47:34.281Z,34.83
2023-03-04T05:50:00.735Z,34.78
2023-03-04T05:52:27.170Z,33.70
2023-03-04T05:54:56.047Z,33.05
2023-03-04T05:57:22.644Z,34.28
2023-03-04T05:59:49.081Z,35.47
2023-03-04T06:02:15.533Z,34.25
2023-03-04T06:04:41.949Z,36.10
2023-03-04T06:07:08.419Z,38.10
2023-03-04T06:09:34.839Z,39.70
2023-03-04T06:12:01.323Z,42.40
2023-03-04T06:14:27.866Z,40.08
2023-03-04T06:16:54.489Z,42.22
2023-03-04T06:19:21.024Z,39.22
2023-03-04T06:21:47.532Z,68.18
2023-03-04T06:24:14.072Z,177.32
2023-03-04T06:26:43.096Z,170.63
2023-03-04T06:29:09.827Z,475.77
2023-03-04T06:31:36.333Z,204.00
2023-03-04T06:34:02.788Z,52.28
2023-03-04T06:36:29.370Z,40.70
2023-03-04T06:38:55.869Z,40.97
2023-03-04T06:41:22.324Z,42.42
2023-03-04T06:43:48.873Z,36.95
2023-03-04T06:46:15.584Z,36.85
2023-03-04T06:48:42.340Z,38.92
2023-03-04T06:51:09.655Z,36.35
2023-03-04T06:53:36.478Z,37.33
2023-03-04T06:56:03.346Z,43.53
2023-03-04T06:58:29.993Z,65.80
2023-03-04T07:00:56.581Z,47.55
2023-03-04T07:03:23.611Z,38.25
2023-03-04T07:05:50.071Z,35.50
2023-03-04T07:08:16.820Z,36.38
2023-03-04T07:10:43.277Z,38.15
2023-03-04T07:13:09.951Z,37.80
2023-03-04T07:15:37.403Z,39.00
2023-03-04T07:18:03.911Z,39.88
2023-03-04T07:20:31.815Z,39.33
2023-03-04T07:22:58.345Z,40.13
2023-03-04T07:25:24.830Z,40.00
2023-03-04T07:27:51.287Z,39.53
2023-03-04T07:30:17.882Z,40.35
2023-03-04T07:32:44.399Z,40.97
2023-03-04T07:35:11.065Z,42.47
2023-03-04T07:37:37.733Z,44.45
2023-03-04T07:40:04.346Z,49.08
2023-03-04T07:42:30.916Z,63.08
2023-03-04T07:44:57.807Z,58.88
2023-03-04T07:47:24.369Z,57.42
2023-03-04T07:49:50.886Z,58.78
2023-03-04T07:52:17.359Z,58.03
2023-03-04T07:54:43.824Z,50.53
2023-03-04T07:57:10.488Z,47.88
2023-03-04T07:59:36.956Z,42.35
2023-03-04T08:02:03.430Z,40.67
2023-03-04T08:04:30.283Z,39.47
2023-03-04T08:06:56.717Z,38.35
2023-03-04T08:09:23.274Z,39.13
2023-03-04T08:11:49.993Z,37.53
2023-03-04T08:14:16.514Z,36.67
2023-03-04T08:16:43.016Z,37.20
2023-03-04T08:19:09.556Z,38.83
2023-03-04T08:21:36.262Z,35.42
2023-03-04T08:24:08.190Z,34.38
2023-03-04T08:26:40.830Z,38.90
2023-03-04T08:29:08.645Z,36.10
2023-03-04T08:31:35.226Z,32.42
2023-03-04T08:34:03.160Z,33.42
2023-03-04T08:36:29.718Z,30.75
2023-03-04T08:38:56.234Z,31.73
2023-03-04T08:41:27.505Z,29.08
2023-03-04T08:43:56.660Z,29.70
2023-03-04T08:46:23.232Z,28.40
2023-03-04T08:48:52.308Z,28.42
2023-03-04T08:51:19.157Z,27.90
2023-03-04T08:53:46.179Z,26.67
2023-03-04T08:56:13.813Z,28.13
2023-03-04T08:58:40.553Z,27.83
2023-03-04T09:01:10.531Z,28.83
2023-03-04T09:03:39.922Z,27.92
2023-03-04T09:06:07.196Z,27.27
2023-03-04T09:08:34.063Z,27.23
2023-03-04T09:11:00.623Z,28.05
2023-03-04T09:13:28.782Z,29.15
2023-03-04T09:15:55.553Z,28.23
2023-03-04T09:18:23.083Z,26.85
2023-03-04T09:20:49.656Z,28.15
2023-03-04T09:23:16.269Z,27.35
2023-03-04T09:25:43.085Z,24.70
2023-03-04T09:28:10.656Z,24.83
2023-03-04T09:30:39.746Z,25.98
2023-03-04T09:33:06.248Z,25.77
2023-03-04T09:35:32.813Z,24.95
2023-03-04T09:37:59.396Z,22.65
2023-03-04T09:40:33.528Z,24.27
2023-03-04T09:43:03.334Z,23.92
2023-03-04T09:45:34.747Z,23.17
2023-03-04T09:48:01.780Z,24.98
2023-03-04T09:50:32.312Z,23.10
2023-03-04T09:52:58.797Z,22.23
2023-03-04T09:55:39.355Z,22.17
2023-03-04T09:58:25.025Z,22.40
2023-03-04T10:01:00.826Z,22.40
2023-03-04T10:03:32.052Z,21.73
2023-03-04T10:06:06.071Z,21.92
2023-03-04T10:08:41.832Z,21.15
2023-03-04T10:11:16.500Z,20.67
2023-03-04T10:13:48.909Z,19.65
2023-03-04T10:16:18.207Z,20.23
2023-03-04T10:18:48.607Z,19.55
2023-03-04T10:21:24.377Z,21.05
2023-03-04T10:23:51.051Z,20.77
2023-03-04T10:26:20.832Z,20.17
2023-03-04T10:28:47.766Z,18.75
2023-03-04T10:31:22.882Z,20.63
2023-03-04T10:33:49.724Z,19.30
2023-03-04T10:36:28.348Z,20.25
2023-03-04T10:38:59.669Z,19.27
2023-03-04T10:41:27.783Z,19.77
2023-03-04T10:44:26.806Z,20.23
2023-03-04T10:46:54.642Z,19.20
2023-03-04T10:49:21.405Z,19.35
2023-03-04T10:51:48.458Z,19.00
2023-03-04T10:54:44.044Z,19.23
2023-03-04T10:57:18.249Z,20.27
2023-03-04T10:59:46.068Z,19.90
2023-03-04T11:02:22.878Z,20.27
2023-03-04T11:04:51.160Z,18.63
2023-03-04T11:07:17.606Z,20.10
2023-03-04T11:09:44.810Z,18.92
2023-03-04T11:12:12.614Z,19.15
2023-03-04T11:14:45.996Z,20.30
2023-03-04T11:17:18.784Z,18.75
2023-03-04T11:19:47.387Z,20.20
2023-03-04T11:22:15.924Z,19.00
2023-03-04T11:24:45.969Z,22.45
2023-03-04T11:27:18.675Z,21.98
2023-03-04T11:30:11.505Z,22.38
2023-03-04T11:32:40.494Z,21.98
2023-03-04T11:35:06.976Z,23.20
2023-03-04T11:37:36.470Z,49.13
2023-03-04T11:40:06.199Z,23.40
2023-03-04T11:42:32.937Z,22.23
2023-03-04T11:44:59.470Z,22.27
2023-03-04T11:47:25.944Z,22.88
2023-03-04T11:50:10.672Z,23.52
2023-03-04T11:52:40.161Z,23.90
2023-03-04T11:55:15.748Z,22.48
2023-03-04T11:57:50.760Z,25.25
2023-03-04T12:00:23.330Z,24.13
2023-03-04T12:03:05.167Z,24.35
2023-03-04T12:05:41.198Z,23.33
2023-03-04T12:08:21.833Z,23.85
2023-03-04T12:11:06.646Z,24.80
2023-03-04T12:13:36.370Z,22.88
2023-03-04T12:16:08.892Z,24.25
2023-03-04T12:18:41.426Z,21.60
2023-03-04T12:21:32.597Z,21.70
2023-03-04T12:24:16.368Z,20.55
2023-03-04T12:27:01.215Z,21.35
2023-03-04T12:29:46.496Z,20.02
2023-03-04T12:32:27.513Z,19.80
2023-03-04T12:35:12.544Z,19.52
2023-03-04T12:37:39.073Z,18.13
2023-03-04T12:40:12.493Z,17.83
2023-03-04T12:42:57.296Z,17.67
2023-03-04T12:45:40.316Z,17.05
2023-03-04T12:48:14.286Z,16.33
2023-03-04T12:50:49.768Z,16.92
2023-03-04T12:53:17.449Z,16.20
2023-03-04T12:55:47.168Z,16.58
2023-03-04T12:58:16.292Z,15.63
2023-03-04T13:00:42.735Z,16.17
2023-03-04T13:03:09.230Z,13.68
2023-03-04T13:05:35.713Z,14.32
2023-03-04T13:08:08.649Z,14.38
2023-03-04T13:10:35.953Z,13.53
2023-03-04T13:13:04.628Z,13.63
2023-03-04T13:15:37.935Z,12.73
2023-03-04T13:18:24.371Z,12.27
2023-03-04T13:21:05.599Z,11.73
2023-03-04T13:23:32.710Z,11.68
2023-03-04T13:25:59.144Z,12.77
2023-03-04T13:28:31.396Z,12.70
2023-03-04T13:31:00.324Z,13.27
2023-03-04T13:33:26.879Z,12.90
2023-03-04T13:35:58.148Z,11.95
2023-03-04T13:38:24.705Z,12.07
2023-03-04T13:41:00.055Z,11.82
2023-03-04T13:43:27.967Z,11.75
2023-03-04T13:45:54.572Z,11.88
2023-03-04T13:48:25.898Z,11.50
2023-03-04T13:50:52.711Z,12.45
2023-03-04T13:53:23.767Z,10.93
2023-03-04T13:56:20.048Z,10.95
2023-03-04T13:58:48.164Z,11.75
2023-03-04T14:01:25.527Z,12.30
2023-03-04T14:03:52.043Z,11.50
2023-03-04T14:06:20.241Z,11.40
2023-03-04T14:08:49.580Z,11.88
2023-03-04T14:11:19.182Z,11.25
2023-03-04T14:13:48.240Z,10.88
2023-03-04T14:16:19.860Z,12.23
2023-03-04T14:18:46.371Z,11.43
2023-03-04T14:21:15.896Z,12.43
2023-03-04T14:23:42.401Z,12.02
2023-03-04T14:26:13.398Z,12.68
2023-03-04T14:28:44.238Z,12.35
2023-03-04T14:31:15.175Z,12.38
2023-03-04T14:33:44.640Z,12.98
2023-03-04T14:36:15.869Z,12.77
2023-03-04T14:38:47.256Z,11.57
2023-03-04T14:41:21.331Z,12.80
2023-03-04T14:43:50.890Z,11.80
2023-03-04T14:46:18.996Z,12.38
2023-03-04T14:48:49.148Z,18.38
2023-03-04T14:51:39.016Z,13.07
2023-03-04T14:54:05.660Z,15.77
2023-03-04T14:56:34.201Z,20.27
2023-03-04T14:59:00.777Z,14.43
2023-03-04T15:01:37.057Z,13.65
2023-03-04T15:04:05.525Z,12.77
2023-03-04T15:06:33.178Z,12.60
2023-03-04T15:09:03.832Z,12.27
2023-03-04T15:11:32.854Z,11.68
2023-03-04T15:14:00.208Z,11.55
2023-03-04T15:16:46.740Z,13.10
2023-03-04T15:19:31.693Z,12.55
2023-03-04T15:22:08.113Z,13.40
2023-03-04T15:24:34.647Z,13.20
2023-03-04T15:27:01.157Z,12.48
2023-03-04T15:29:28.882Z,13.10
2023-03-04T15:31:55.387Z,12.60
2023-03-04T15:34:22.020Z,12.52
2023-03-04T15:36:51.553Z,12.75
2023-03-04T15:39:21.805Z,13.60
2023-03-04T15:41:48.528Z,14.02
2023-03-04T15:44:15.077Z,13.52
2023-03-04T15:46:41.613Z,13.52
2023-03-04T15:49:08.232Z,13.77
2023-03-04T15:51:35.613Z,14.32
2023-03-04T15:54:02.424Z,13.88
2023-03-04T15:56:30.443Z,14.13
2023-03-04T15:58:58.793Z,13.55
2023-03-04T16:01:25.337Z,13.95
2023-03-04T16:03:53.670Z,13.27
2023-03-04T16:06:23.824Z,13.77
2023-03-04T16:08:50.904Z,14.00
2023-03-04T16:11:22.575Z,14.52
2023-03-04T16:13:49.612Z,13.93
2023-03-04T16:16:16.170Z,13.70
2023-03-04T16:18:43.187Z,13.82
2023-03-04T16:21:12.598Z,14.20
2023-03-04T16:23:40.453Z,14.85
2023-03-04T16:26:11.400Z,14.68
2023-03-04T16:28:40.182Z,16.05
2023-03-04T16:31:07.037Z,13.95
2023-03-04T16:33:35.763Z,15.00
2023-03-04T16:36:03.988Z,15.35
2023-03-04T16:38:34.127Z,16.00
2023-03-04T16:41:03.802Z,14.50
2023-03-04T16:43:30.346Z,14.88
2023-03-04T16:45:56.908Z,15.80
2023-03-04T16:48:23.370Z,16.25
2023-03-04T16:50:49.941Z,16.27
2023-03-04T16:53:22.134Z,17.92
2023-03-04T16:55:48.668Z,17.67
2023-03-04T16:58:18.061Z,16.80
2023-03-04T17:00:44.635Z,17.27
2023-03-04T17:03:11.566Z,19.60
2023-03-04T17:05:38.136Z,17.27
2023-03-04T17:08:04.688Z,20.13
2023-03-04T17:10:31.382Z,18.60
2023-03-04T17:12:57.867Z,17.92
2023-03-04T17:15:24.351Z,17.45
2023-03-04T17:17:52.692Z,19.45
2023-03-04T17:20:19.349Z,19.13
2023-03-04T17:22:48.213Z,20.50
2023-03-04T17:25:15.046Z,18.02
2023-03-04T17:27:41.909Z,20.08
2023-03-04T17:30:11.473Z,18.35
2023-03-04T17:32:39.509Z,18.38
2023-03-04T17:35:09.032Z,20.63
2023-03-04T17:37:35.610Z,19.33
2023-03-04T17:40:03.750Z,18.52
2023-03-04T17:42:33.284Z,17.70
2023-03-04T17:45:02.404Z,18.92
2023-03-04T17:47:28.994Z,19.58
2023-03-04T17:49:55.449Z,17.30
2023-03-04T17:52:21.926Z,18.58
2023-03-04T17:54:48.512Z,19.45
2023-03-04T17:57:15.031Z,17.48
2023-03-04T17:59:41.640Z,17.52
2023-03-04T18:02:13.632Z,18.13
2023-03-04T18:04:42.726Z,18.55
2023-03-04T18:07:09.306Z,18.95
2023-03-04T18:09:38.001Z,22.15
2023-03-04T18:12:04.645Z,18.00
2023-03-04T18:14:33.755Z,17.10
2023-03-04T18:17:00.213Z,17.38
2023-03-04T18:19:26.677Z,17.38
2023-03-04T18:21:53.128Z,18.08
2023-03-04T18:24:19.595Z,17.30
2023-03-04T18:26:46.044Z,17.98
2023-03-04T18:29:12.537Z,17.95
2023-03-04T18:31:39.039Z,16.85
2023-03-04T18:34:05.603Z,18.60
2023-03-04T18:36:32.593Z,17.98
2023-03-04T18:38:59.580Z,20.45
2023-03-04T18:41:28.568Z,20.63
2023-03-04T18:43:55.098Z,18.20
2023-03-04T18:46:42.939Z,17.00
2023-03-04T18:49:13.226Z,17.88
2023-03-04T18:51:39.742Z,19.30
2023-03-04T18:54:06.440Z,19.77
2023-03-04T18:56:38.376Z,20.50
2023-03-04T18:59:16.643Z,18.80
2023-03-04T19:01:43.483Z,18.70
2023-03-04T19:04:10.117Z,17.83
2023-03-04T19:06:36.716Z,17.50
2023-03-04T19:09:05.847Z,16.98
2023-03-04T19:11:32.388Z,18.17
2023-03-04T19:13:59.044Z,18.95
2023-03-04T19:16:25.680Z,17.70
2023-03-04T19:18:54.637Z,18.23
2023-03-04T19:21:21.117Z,17.98
2023-03-04T19:23:47.668Z,18.55
2023-03-04T19:26:15.421Z,17.33
2023-03-04T19:28:42.175Z,25.38
2023-03-04T19:31:12.394Z,29.67
2023-03-04T19:33:40.168Z,20.85
2023-03-04T19:36:07.547Z,19.95
2023-03-04T19:38:34.369Z,19.48
2023-03-04T19:41:09.669Z,18.50
2023-03-04T19:43:38.667Z,18.17
2023-03-04T19:46:06.185Z,19.70
2023-03-04T19:48:33.151Z,19.50
2023-03-04T19:50:59.902Z,18.25
2023-03-04T19:53:26.703Z,18.65
2023-03-04T19:55:54.030Z,17.75
2023-03-04T19:58:20.881Z,18.35
2023-03-04T20:00:47.489Z,19.95
2023-03-04T20:03:14.038Z,19.10
2023-03-04T20:05:40.564Z,18.48
2023-03-04T20:08:07.169Z,19.88
2023-03-04T20:10:41.094Z,18.55
2023-03-04T20:13:08.876Z,17.77
2023-03-04T20:15:35.451Z,18.13
2023-03-04T20:18:02.148Z,17.92
2023-03-04T20:20:31.197Z,19.02
2023-03-04T20:22:58.034Z,17.65
2023-03-04T20:25:24.979Z,17.75
2023-03-04T20:27:51.482Z,18.17
2023-03-04T20:30:18.135Z,18.80
2023-03-04T20:32:45.411Z,18.98
2023-03-04T20:35:15.191Z,19.10
2023-03-04T20:37:41.938Z,18.33
2023-03-04T20:40:09.469Z,18.58
2023-03-04T20:42:36.124Z,18.98
2023-03-04T20:45:02.902Z,18.70
2023-03-04T20:47:29.375Z,18.42
2023-03-04T20:49:55.844Z,19.33
2023-03-04T20:52:22.356Z,18.60
2023-03-04T20:54:48.873Z,18.77
2023-03-04T20:57:17.930Z,19.30
2023-03-04T20:59:44.444Z,18.92
2023-03-04T21:02:13.131Z,19.48
2023-03-04T21:04:39.653Z,18.92
2023-03-04T21:07:08.742Z,19.05
2023-03-04T21:09:35.406Z,18.58
2023-03-04T21:12:02.141Z,20.30
2023-03-04T21:14:30.582Z,19.23
2023-03-04T21:17:01.432Z,19.63
2023-03-04T21:19:29.314Z,19.55
2023-03-04T21:21:59.265Z,18.80
2023-03-04T21:24:26.991Z,20.20
2023-03-04T21:26:53.563Z,20.20
2023-03-04T21:29:21.383Z,18.73
2023-03-04T21:31:56.328Z,19.13
2023-03-04T21:34:24.721Z,17.90
2023-03-04T21:36:51.297Z,19.45
2023-03-04T21:39:19.393Z,17.52
2023-03-04T21:41:46.551Z,19.08
2023-03-04T21:44:28.129Z,18.83
2023-03-04T21:47:00.148Z,17.98
2023-03-04T21:49:26.999Z,20.38
2023-03-04T21:51:55.922Z,27.50
2023-03-04T21:54:25.080Z,58.90
2023-03-04T21:56:51.532Z,55.38
2023-03-04T21:59:18.354Z,18.58
2023-03-04T22:01:44.954Z,27.27
2023-03-04T22:04:11.736Z,19.83
2023-03-04T22:06:39.999Z,19.33
2023-03-04T22:09:06.839Z,18.90
2023-03-04T22:11:33.389Z,18.13
2023-03-04T22:14:03.101Z,18.13
2023-03-04T22:16:30.338Z,18.85
2023-03-04T22:18:56.953Z,18.98
2023-03-04T22:21:23.521Z,18.50
2023-03-04T22:23:50.237Z,18.13
2023-03-04T22:26:21.211Z,18.65
2023-03-04T22:28:47.740Z,18.20
2023-03-04T22:31:14.202Z,18.63
2023-03-04T22:33:40.793Z,18.60
2023-03-04T22:36:07.390Z,17.63
2023-03-04T22:38:35.113Z,17.88
2023-03-04T22:41:01.796Z,18.25
2023-03-04T22:43:28.289Z,19.67
2023-03-04T22:45:54.847Z,19.40
2023-03-04T22:48:21.401Z,20.02
2023-03-04T22:50:47.893Z,20.38
2023-03-04T22:53:14.389Z,19.92
2023-03-04T22:55:40.843Z,20.38
2023-03-04T22:58:07.416Z,21.45
2023-03-04T23:00:34.011Z,20.17
2023-03-04T23:03:00.468Z,19.70
2023-03-04T23:05:27.094Z,21.10
2023-03-04T23:07:53.722Z,20.50
2023-03-04T23:10:22.495Z,20.35
2023-03-04T23:12:49.467Z,20.20
2023-03-04T23:15:17.383Z,20.15
2023-03-04T23:17:44.185Z,19.83
2023-03-04T23:20:17.864Z,20.02
2023-03-04T23:22:50.350Z,20.08
2023-03-04T23:25:17.161Z,20.98
2023-03-04T23:27:43.761Z,20.30
2023-03-04T23:30:15.056Z,19.92
2023-03-04T23:32:41.933Z,20.35
2023-03-04T23:35:08.536Z,19.88
2023-03-04T23:37:34.973Z,19.67
2023-03-04T23:40:01.572Z,20.83
2023-03-04T23:42:30.894Z,20.05
2023-03-04T23:44:57.364Z,20.65
2023-03-04T23:47:23.889Z,20.02
2023-03-04T23:49:50.343Z,21.52
2023-03-04T23:52:16.884Z,21.98
2023-03-04T23:54:43.260Z,21.10
2023-03-04T23:57:09.795Z,21.05
2023-03-04T23:59:37.844Z,21.80
